Time;durP1;ratioP1;P1;durP2;ratioP2;P2;SDS_P1;SDS_P2;PMS_P1;PMS_P2;Temp;Humidity;BMP_temperature;BMP_pressure;BME280_temperature;BME280_humidity;BME280_pressure;Samples;Min_cycle;Max_cycle;Signal;HPM_P1;HPM_P2
2022/09/01 00:01:25;;;;;;;8.18;5.72;;;;;;;22.92;73.08;98167.16;5025723;28;20040;-62
2022/09/01 00:03:52;;;;;;;8.93;5.35;;;;;;;22.68;73.86;98130.13;5037811;28;20034;-59
2022/09/01 00:06:21;;;;;;;6.50;5.28;;;;;;;22.81;73.80;98142.31;5015578;28;20029;-59
2022/09/01 00:08:48;;;;;;;7.22;4.97;;;;;;;22.83;74.27;98135.75;5027920;28;20040;-61
2022/09/01 00:11:14;;;;;;;7.78;5.35;;;;;;;22.88;74.10;98153.59;5030645;28;20024;-61
2022/09/01 00:13:39;;;;;;;7.57;5.43;;;;;;;22.84;74.06;98158.56;4950325;28;20060;-62
2022/09/01 00:16:05;;;;;;;7.93;5.75;;;;;;;22.97;73.43;98160.13;5042072;28;20430;-58
2022/09/01 00:18:31;;;;;;;8.13;5.50;;;;;;;22.93;73.66;98163.50;5031241;28;20029;-66
2022/09/01 00:20:58;;;;;;;6.88;5.00;;;;;;;22.79;74.06;98150.50;5039817;28;20735;-61
2022/09/01 00:23:25;;;;;;;7.07;4.93;;;;;;;22.74;74.08;98137.13;5032543;28;20123;-62
2022/09/01 00:25:50;;;;;;;7.30;5.18;;;;;;;22.83;74.57;98159.59;5023414;28;20104;-61
2022/09/01 00:28:15;;;;;;;7.68;5.25;;;;;;;22.91;74.74;98161.06;5036060;28;20743;-63
2022/09/01 00:30:41;;;;;;;7.45;5.03;;;;;;;22.91;74.60;98158.44;5038181;28;20035;-61
2022/09/01 00:33:07;;;;;;;8.07;5.32;;;;;;;22.64;74.70;98116.56;4968571;28;20084;-63
2022/09/01 00:35:32;;;;;;;8.75;5.45;;;;;;;22.64;74.78;98123.69;5031869;28;20040;-60
2022/09/01 00:37:57;;;;;;;11.63;5.90;;;;;;;22.76;75.12;98163.41;5037948;28;20033;-59
2022/09/01 00:40:23;;;;;;;7.72;5.28;;;;;;;22.69;75.11;98158.25;5035834;28;20036;-59
2022/09/01 00:42:48;;;;;;;7.05;5.10;;;;;;;22.80;75.44;98175.16;5031714;28;20530;-60
2022/09/01 00:45:14;;;;;;;7.18;5.05;;;;;;;22.82;74.84;98176.53;5034911;28;20036;-62
2022/09/01 00:47:40;;;;;;;7.15;5.30;;;;;;;22.83;74.58;98175.50;5026452;28;20024;-59
2022/09/01 00:50:07;;;;;;;7.78;4.95;;;;;;;22.82;75.07;98170.44;5023610;28;20123;-59
2022/09/01 00:52:42;;;;;;;9.85;5.38;;;;;;;22.53;75.05;98138.59;4936117;28;20704;-60
2022/09/01 00:55:15;;;;;;;8.00;5.47;;;;;;;22.62;74.87;98150.44;5036627;28;20541;-61
2022/09/01 00:57:41;;;;;;;8.70;5.35;;;;;;;22.48;75.42;98146.41;5021808;28;20036;-63
2022/09/01 01:00:14;;;;;;;8.25;5.22;;;;;;;22.68;75.67;98182.34;5035023;28;20028;-66
2022/09/01 01:02:40;;;;;;;7.65;5.40;;;;;;;22.56;75.75;98166.44;5067170;28;20078;-59
2022/09/01 01:05:06;;;;;;;6.95;5.13;;;;;;;;;;5017061;28;20424;-62
2022/09/01 01:07:35;;;;;;;6.05;4.57;;;;;;;22.51;75.65;98148.63;5034450;28;20038;-62
2022/09/01 01:10:01;;;;;;;7.57;5.00;;;;;;;22.65;75.87;98187.06;5023436;28;20271;-63
2022/09/01 01:12:26;;;;;;;7.95;5.00;;;;;;;22.55;75.91;98186.03;5024910;28;20050;-61
2022/09/01 01:14:52;;;;;;;7.90;5.47;;;;;;;22.42;76.85;98177.28;5037078;28;20024;-58
2022/09/01 01:17:19;;;;;;;10.02;5.90;;;;;;;21.99;77.42;98146.66;5031180;28;20033;-61
2022/09/01 01:23:04;;;;;;;8.75;6.07;;;;;;;22.20;77.87;98168.31;5036781;28;20152;-58
2022/09/01 01:25:35;;;;;;;8.93;6.20;;;;;;;22.40;77.32;98167.97;5036210;28;20020;-65
2022/09/01 01:28:14;;;;;;;8.02;5.88;;;;;;;22.33;77.72;98154.84;5041119;28;20060;-61
2022/09/01 01:30:49;;;;;;;11.13;6.38;;;;;;;22.51;77.21;98169.00;5024781;28;20072;-63
2022/09/01 01:33:16;;;;;;;9.38;6.03;;;;;;;22.57;77.78;98165.41;5029488;28;20596;-60
2022/09/01 01:35:42;;;;;;;8.57;6.53;;;;;;;22.38;76.92;98128.47;5037965;28;20805;-61
2022/09/01 01:38:08;;;;;;;8.13;5.90;;;;;;;22.58;76.28;98161.72;5036263;28;20037;-59
2022/09/01 01:40:35;;;;;;;7.97;5.70;;;;;;;22.50;76.57;98159.44;5043333;28;20142;-57
2022/09/01 01:43:00;;;;;;;8.43;6.22;;;;;;;22.21;77.18;98125.69;5030368;28;20034;-62
2022/09/01 01:45:26;;;;;;;10.82;6.20;;;;;;;22.05;77.71;98113.97;5036609;28;20029;-60
2022/09/01 01:47:53;;;;;;;8.98;6.72;;;;;;;22.38;77.57;98154.97;5044224;28;20508;-57
2022/09/01 01:50:33;;;;;;;8.20;6.50;;;;;;;22.26;77.97;98146.22;5021146;28;20112;-60
2022/09/01 01:53:00;;;;;;;7.90;6.13;;;;;;;22.06;79.06;98144.69;4963182;28;20111;-61
2022/09/01 01:55:27;;;;;;;8.13;5.90;;;;;;;22.02;79.24;98140.09;5039261;28;20021;-57
2022/09/01 01:57:53;;;;;;;9.18;6.32;;;;;;;22.06;79.88;98154.47;5030935;28;20495;-61
2022/09/01 02:00:22;;;;;;;7.65;5.78;;;;;;;22.11;80.37;98148.50;5022055;28;20029;-60
2022/09/01 02:02:51;;;;;;;8.77;6.53;;;;;;;21.92;80.60;98147.78;5031360;28;20036;-57
2022/09/01 02:05:24;;;;;;;;;;;;;;;21.97;80.10;98143.44;5040153;28;20313;-62
2022/09/01 02:07:55;;;;;;;8.27;6.15;;;;;;;21.92;79.74;98145.16;5015668;28;19925;-59
2022/09/01 02:10:30;;;;;;;8.88;6.63;;;;;;;21.84;79.94;98139.16;5050142;28;20041;-56
2022/09/01 02:13:03;;;;;;;9.75;7.10;;;;;;;21.91;79.84;98139.06;5042875;28;20037;-59
2022/09/01 02:15:43;;;;;;;10.73;7.28;;;;;;;21.74;80.94;98131.00;5045632;28;20039;-60
2022/09/01 02:18:18;;;;;;;11.38;8.23;;;;;;;21.69;81.47;98136.16;5037108;28;20051;-59
2022/09/01 02:20:46;;;;;;;9.98;7.65;;;;;;;21.63;81.99;98140.53;5032516;28;20036;-60
2022/09/01 02:23:14;;;;;;;12.40;8.27;;;;;;;21.65;81.51;98117.28;5042587;28;20041;-62
2022/09/01 02:25:42;;;;;;;10.68;8.02;;;;;;;21.68;81.91;98132.72;5024049;28;20040;-60
2022/09/01 02:28:14;;;;;;;10.52;7.53;;;;;;;21.33;82.40;98087.66;5042292;28;20041;-61
2022/09/01 02:30:44;;;;;;;11.80;7.63;;;;;;;21.50;83.06;98124.84;5023603;28;20060;-61
2022/09/01 02:33:10;;;;;;;;;;;;;;;21.47;83.71;98139.34;5017520;28;20121;-59
2022/09/01 02:35:36;;;;;;;10.30;7.10;;;;;;;21.45;83.60;98135.31;5044142;28;20011;-58
2022/09/01 02:38:04;;;;;;;9.85;7.43;;;;;;;21.45;84.38;98136.13;5037301;28;20091;-62
2022/09/01 02:40:30;;;;;;;9.45;7.25;;;;;;;21.45;83.52;98141.41;5032925;28;20802;-61
2022/09/01 02:42:58;;;;;;;11.25;6.57;;;;;;;21.50;83.26;98130.13;5017868;28;20017;-59
2022/09/01 02:45:23;;;;;;;7.65;5.60;;;;;;;21.42;82.62;98136.53;5037801;28;20040;-59
2022/09/01 02:47:50;;;;;;;7.63;5.50;;;;;;;21.43;82.51;98132.03;5033434;28;20029;-58
2022/09/01 02:50:17;;;;;;;8.63;5.88;;;;;;;21.40;82.42;98132.53;5043339;28;20375;-64
2022/09/01 02:52:44;;;;;;;8.25;6.18;;;;;;;21.40;82.09;98130.66;4966720;28;20044;-60
2022/09/01 02:55:11;;;;;;;8.93;5.82;;;;;;;21.36;82.37;98128.72;5035887;28;20056;-58
2022/09/01 02:57:36;;;;;;;7.53;5.70;;;;;;;21.31;82.25;98114.31;5034384;28;20061;-61
2022/09/01 03:00:19;;;;;;;8.48;6.10;;;;;;;21.30;82.53;98119.81;5037863;28;20108;-60
2022/09/01 03:02:46;;;;;;;8.38;5.50;;;;;;;21.19;83.19;98112.69;5036792;28;20021;-59
2022/09/01 03:05:15;;;;;;;8.18;5.20;;;;;;;21.26;82.80;98124.75;5034503;28;20078;-60
2022/09/01 03:07:41;;;;;;;8.18;6.38;;;;;;;21.21;82.41;98127.28;5040410;28;20025;-61
2022/09/01 03:10:08;;;;;;;8.68;6.10;;;;;;;20.94;82.78;98089.84;5041563;28;20033;-62
2022/09/01 03:12:34;;;;;;;8.57;6.03;;;;;;;21.11;82.65;98130.47;5016528;28;20087;-60
2022/09/01 03:14:59;;;;;;;9.95;6.35;;;;;;;21.12;82.47;98118.06;5025952;28;20061;-61
2022/09/01 03:17:25;;;;;;;8.93;6.50;;;;;;;21.11;82.39;98119.88;5031714;28;20099;-57
2022/09/01 03:19:50;;;;;;;8.25;5.93;;;;;;;21.13;82.08;98115.19;5034991;28;20029;-57
2022/09/01 03:22:16;;;;;;;9.00;6.40;;;;;;;21.11;82.05;98114.59;5038225;28;20092;-61
2022/09/01 03:24:41;;;;;;;9.32;6.35;;;;;;;21.11;81.81;98116.44;5028659;28;20040;-61
2022/09/01 03:27:10;;;;;;;8.80;6.15;;;;;;;20.95;82.25;98090.66;5041505;28;20067;-56
2022/09/01 03:29:37;;;;;;;8.45;6.45;;;;;;;21.14;82.31;98121.28;5036992;28;20063;-60
2022/09/01 03:32:03;;;;;;;7.95;6.00;;;;;;;21.05;81.98;98090.94;5015705;28;20107;-59
2022/09/01 03:34:28;;;;;;;8.18;6.28;;;;;;;21.17;81.94;98117.38;5015105;28;20041;-58
2022/09/01 03:36:55;;;;;;;8.45;5.90;;;;;;;21.16;82.09;98107.84;5033239;28;20397;-62
2022/09/01 03:39:20;;;;;;;8.02;6.05;;;;;;;20.96;82.39;98085.16;5041733;28;20471;-59
2022/09/01 03:41:46;;;;;;;7.72;5.68;;;;;;;20.88;82.43;98080.16;5037509;28;20047;-60
2022/09/01 03:44:15;;;;;;;8.63;5.80;;;;;;;21.10;81.58;98106.91;5038289;28;20085;-62
2022/09/01 03:46:41;;;;;;;8.65;5.57;;;;;;;21.15;81.97;98108.88;5035057;28;20031;-59
2022/09/01 03:49:08;;;;;;;8.70;5.65;;;;;;;21.20;81.05;98101.88;5018202;28;20029;-61
2022/09/01 03:51:34;;;;;;;9.02;5.90;;;;;;;21.26;80.80;98110.75;5001684;28;20037;-66
2022/09/01 03:53:59;;;;;;;8.70;5.78;;;;;;;21.28;81.13;98108.69;4963761;28;20032;-58
2022/09/01 03:56:26;;;;;;;9.85;5.45;;;;;;;21.35;80.74;98098.81;5047650;28;20036;-62
2022/09/01 03:58:57;;;;;;;7.68;5.78;;;;;;;21.12;81.70;98062.56;5020270;28;20033;-57
2022/09/01 04:01:25;;;;;;;7.85;5.50;;;;;;;21.33;81.36;98098.22;5034023;28;20053;-62
2022/09/01 04:03:51;;;;;;;7.00;5.50;;;;;;;21.43;81.58;98098.50;5037276;28;20135;-61
2022/09/01 04:06:18;;;;;;;9.43;5.60;;;;;;;21.47;81.02;98094.38;5031974;28;20072;-60
2022/09/01 04:08:45;;;;;;;7.93;5.78;;;;;;;21.20;81.31;98051.66;5017633;28;20041;-59
2022/09/01 04:11:14;;;;;;;8.02;6.18;;;;;;;21.16;82.79;98086.72;5030898;28;20071;-57
2022/09/01 04:13:41;;;;;;;7.50;5.63;;;;;;;21.24;83.51;98100.38;4933916;28;20053;-59
2022/09/01 04:18:03;;;;;;;7.53;5.63;;;;;;;21.26;82.16;98089.59;5036274;28;20171;-59
2022/09/01 04:18:59;;;;;;;8.05;5.45;;;;;;;21.33;81.89;98082.38;5033032;28;20418;-64
2022/09/01 04:21:24;;;;;;;8.30;5.25;;;;;;;21.15;81.79;98066.59;5032426;28;20029;-60
2022/09/01 04:23:50;;;;;;;7.50;5.28;;;;;;;21.34;81.97;98085.81;5028233;28;20029;-59
2022/09/01 04:26:19;;;;;;;8.48;5.80;;;;;;;21.32;81.33;98083.41;5035982;28;20033;-64
2022/09/01 04:28:47;;;;;;;8.68;6.25;;;;;;;21.38;81.74;98100.22;5033361;28;20071;-59
2022/09/01 04:31:20;;;;;;;9.65;6.05;;;;;;;21.29;81.79;98102.38;5031536;28;20084;-58
2022/09/01 04:33:47;;;;;;;8.35;6.18;;;;;;;21.25;81.35;98102.00;5021961;28;20032;-57
2022/09/01 04:36:18;;;;;;;7.53;5.75;;;;;;;21.25;81.57;98104.66;5034046;28;20816;-57
2022/09/01 04:38:44;;;;;;;8.73;5.85;;;;;;;21.12;81.40;98075.78;5019264;28;20025;-60
2022/09/01 04:41:15;;;;;;;7.97;5.40;;;;;;;21.20;81.88;98101.06;5022499;28;20120;-58
2022/09/01 04:43:40;;;;;;;7.68;5.55;;;;;;;21.05;82.33;98101.50;5030941;28;20067;-58
2022/09/01 04:46:06;;;;;;;7.07;5.50;;;;;;;21.10;82.23;98097.16;5027913;28;20534;-59
2022/09/01 04:48:33;;;;;;;7.97;5.82;;;;;;;21.03;82.82;98100.91;5032691;28;20554;-61
2022/09/01 04:50:59;;;;;;;7.43;5.90;;;;;;;20.69;82.85;98037.94;5018763;28;20033;-58
2022/09/01 04:53:25;;;;;;;6.80;5.38;;;;;;;20.90;82.91;98062.25;5036213;28;20813;-59
2022/09/01 04:55:51;;;;;;;8.80;5.65;;;;;;;21.06;82.63;98100.44;5029596;28;20092;-58
2022/09/01 04:58:17;;;;;;;7.22;5.43;;;;;;;21.10;81.83;98098.97;5024956;28;20033;-60
2022/09/01 05:00:50;;;;;;;9.50;5.60;;;;;;;21.06;82.00;98103.88;5037191;28;20091;-59
2022/09/01 05:03:20;;;;;;;8.65;5.25;;;;;;;21.02;82.27;98094.81;5034344;28;20037;-59
2022/09/01 05:05:46;;;;;;;7.43;5.82;;;;;;;20.98;82.19;98098.94;5030364;28;20025;-59
2022/09/01 05:08:15;;;;;;;7.90;6.22;;;;;;;20.99;82.06;98099.72;5013724;28;20036;-60
2022/09/01 05:10:43;;;;;;;10.23;6.30;;;;;;;20.85;82.60;98097.28;5017680;28;20115;-58
2022/09/01 05:13:11;;;;;;;9.67;5.83;;;;;;;20.81;82.26;98076.81;5018929;28;20217;-57
2022/09/01 05:15:45;;;;;;;9.45;5.30;;;;;;;21.00;81.90;98104.81;5032194;28;20499;-60
2022/09/01 05:18:23;;;;;;;8.38;5.65;;;;;;;21.01;81.78;98105.59;5026099;28;20103;-59
2022/09/01 05:20:51;;;;;;;7.85;5.70;;;;;;;21.00;82.26;98109.28;5051820;28;20635;-62
2022/09/01 05:23:18;;;;;;;7.63;5.43;;;;;;;20.91;82.46;98104.31;5040193;28;20029;-60
2022/09/01 05:25:47;;;;;;;8.02;5.80;;;;;;;20.98;81.07;98109.50;5024058;28;20029;-61
2022/09/01 05:28:17;;;;;;;11.43;6.80;;;;;;;20.99;82.00;98115.59;4998536;28;20102;-57
2022/09/01 05:30:44;;;;;;;10.27;6.15;;;;;;;20.94;82.01;98113.63;5017857;28;20052;-61
2022/09/01 05:33:11;;;;;;;8.00;5.22;;;;;;;20.95;82.09;98125.81;5024302;28;20033;-63
2022/09/01 05:35:42;;;;;;;7.13;4.47;;;;;;;20.85;80.04;98121.06;5044089;28;20494;-60
2022/09/01 05:38:11;;;;;;;7.50;4.65;;;;;;;20.67;80.15;98118.44;5010198;28;20122;-64
2022/09/01 05:40:39;;;;;;;6.70;4.70;;;;;;;20.66;80.44;98111.53;5030152;28;20036;-60
2022/09/01 05:43:10;;;;;;;8.52;4.97;;;;;;;20.55;81.44;98084.84;5016376;28;20067;-56
2022/09/01 05:45:37;;;;;;;7.75;4.60;;;;;;;20.71;80.92;98115.13;5008400;28;20032;-65
2022/09/01 05:48:04;;;;;;;6.07;4.03;;;;;;;20.65;80.34;98126.59;5018716;28;20726;-64
2022/09/01 05:50:30;;;;;;;7.00;3.60;;;;;;;20.48;77.89;98094.66;5026415;28;20029;-58
2022/09/01 05:52:55;;;;;;;5.90;3.53;;;;;;;20.72;77.44;98123.88;5029281;28;20513;-58
2022/09/01 05:55:21;;;;;;;6.97;3.65;;;;;;;20.71;77.89;98132.81;5034076;28;20037;-61
2022/09/01 05:57:47;;;;;;;5.47;3.53;;;;;;;20.75;77.40;98128.69;5025278;28;20130;-62
2022/09/01 06:00:14;;;;;;;6.22;3.40;;;;;;;20.85;76.67;98133.47;5034502;28;20094;-62
2022/09/01 06:02:41;;;;;;;6.55;3.67;;;;;;;20.79;76.21;98137.81;5032589;28;20035;-60
2022/09/01 06:05:07;;;;;;;16.45;4.15;;;;;;;20.78;75.99;98141.47;5026175;28;20044;-61
2022/09/01 06:07:36;;;;;;;10.63;3.22;;;;;;;20.73;76.05;98138.69;5026695;28;20064;-60
2022/09/01 06:10:03;;;;;;;10.20;3.30;;;;;;;20.83;75.24;98144.25;5017912;28;20033;-60
2022/09/01 06:12:29;;;;;;;10.07;3.67;;;;;;;20.83;75.16;98148.75;5023161;28;20155;-59
2022/09/01 06:14:55;;;;;;;8.38;3.97;;;;;;;20.67;75.97;98156.22;5027832;28;20029;-61
2022/09/01 06:17:25;;;;;;;10.57;3.50;;;;;;;20.71;76.00;98154.75;5036112;28;20033;-61
2022/09/01 06:19:53;;;;;;;13.60;4.35;;;;;;;20.78;75.84;98149.41;5017164;28;20029;-58
2022/09/01 06:22:19;;;;;;;8.85;3.67;;;;;;;20.83;75.45;98144.25;5023917;28;20091;-56
2022/09/01 06:24:46;;;;;;;6.47;3.35;;;;;;;20.74;76.41;98124.47;5034492;28;20041;-59
2022/09/01 06:27:14;;;;;;;6.60;3.40;;;;;;;20.90;76.92;98171.41;5005343;28;21093;-60
2022/09/01 06:29:40;;;;;;;6.90;3.67;;;;;;;20.81;77.26;98171.91;5038156;28;20032;-60
2022/09/01 06:32:08;;;;;;;7.38;3.83;;;;;;;20.83;77.37;98167.25;5035863;28;20557;-59
2022/09/01 06:34:34;;;;;;;10.98;4.50;;;;;;;20.89;77.60;98168.97;5039941;28;20036;-57
2022/09/01 06:37:00;;;;;;;6.57;4.28;;;;;;;20.89;77.32;98169.78;5015953;28;20191;-60
2022/09/01 06:39:25;;;;;;;7.07;4.03;;;;;;;20.93;77.70;98172.78;5036551;28;20674;-57
2022/09/01 06:41:51;;;;;;;7.65;4.07;;;;;;;20.90;77.65;98170.56;5030751;28;20116;-61
2022/09/01 06:44:21;;;;;;;7.70;4.18;;;;;;;20.71;77.74;98138.91;5017850;28;20738;-59
2022/09/01 06:46:50;;;;;;;7.43;4.60;;;;;;;20.93;78.71;98170.94;5022646;28;20033;-61
2022/09/01 06:49:15;;;;;;;7.45;4.50;;;;;;;20.78;78.28;98141.47;5025053;28;20037;-59
2022/09/01 06:51:41;;;;;;;8.02;3.90;;;;;;;20.88;78.15;98138.28;5037508;28;20361;-61
2022/09/01 06:54:06;;;;;;;6.70;4.28;;;;;;;21.03;77.99;98156.41;5040438;28;20553;-60
2022/09/01 06:56:33;;;;;;;6.63;3.90;;;;;;;21.05;77.73;98171.00;5043204;28;20090;-60
2022/09/01 06:59:00;;;;;;;5.80;3.95;;;;;;;21.11;77.94;98179.88;5038662;28;20345;-58
2022/09/01 07:01:26;;;;;;;6.50;4.28;;;;;;;21.09;77.98;98181.94;5014257;28;20766;-56
2022/09/01 07:03:54;;;;;;;5.60;3.78;;;;;;;21.18;78.15;98175.31;5022758;28;20041;-60
2022/09/01 07:06:26;;;;;;;7.60;4.30;;;;;;;21.23;77.77;98179.91;5067367;28;20063;-61
2022/09/01 07:08:57;;;;;;;7.82;4.47;;;;;;;21.25;78.27;98175.25;5016486;28;20729;-61
2022/09/01 07:11:26;;;;;;;6.68;4.30;;;;;;;21.26;77.89;98175.00;5018405;28;20056;-61
2022/09/01 07:13:56;;;;;;;6.35;4.13;;;;;;;21.20;78.41;98170.63;5031230;28;20027;-61
2022/09/01 07:16:23;;;;;;;6.47;3.90;;;;;;;21.28;77.97;98172.94;5030200;28;20551;-62
2022/09/01 07:18:59;;;;;;;5.80;4.05;;;;;;;21.26;78.34;98180.28;5037313;28;20507;-59
2022/09/01 07:21:26;;;;;;;5.65;3.92;;;;;;;21.24;78.25;98182.34;5071692;28;20573;-59
2022/09/01 07:23:51;;;;;;;6.50;4.05;;;;;;;20.84;77.95;98180.19;5038184;28;20499;-60
2022/09/01 07:26:19;;;;;;;6.90;4.15;;;;;;;20.81;78.21;98187.75;5040100;28;20041;-59
2022/09/01 07:28:45;;;;;;;6.10;4.13;;;;;;;20.58;78.96;98191.84;5006031;28;20021;-65
2022/09/01 07:31:23;;;;;;;8.15;4.53;;;;;;;20.66;79.23;98196.88;5023261;28;20632;-62
2022/09/01 07:33:50;;;;;;;7.22;4.03;;;;;;;20.40;79.15;98170.72;5038165;28;20033;-58
2022/09/01 07:36:19;;;;;;;7.65;4.15;;;;;;;20.51;79.47;98172.63;5020138;28;20898;-60
2022/09/01 07:38:52;;;;;;;6.15;4.25;;;;;;;20.78;78.85;98198.78;5039313;28;20028;-62
2022/09/01 07:41:19;;;;;;;7.25;4.10;;;;;;;20.82;77.30;98195.47;5032233;28;20112;-60
2022/09/01 07:43:44;;;;;;;6.75;3.90;;;;;;;20.95;77.36;98197.16;5032702;28;20025;-59
2022/09/01 07:46:10;;;;;;;6.25;3.95;;;;;;;20.86;76.96;98175.53;5021832;28;20534;-57
2022/09/01 07:48:37;;;;;;;7.20;4.50;;;;;;;20.95;77.38;98170.72;5024441;28;20348;-59
2022/09/01 07:51:03;;;;;;;6.90;4.10;;;;;;;21.28;78.04;98196.75;5035582;28;20033;-60
2022/09/01 07:53:31;;;;;;;7.53;4.20;;;;;;;21.33;75.48;98201.34;5032365;28;20207;-63
2022/09/01 07:56:00;;;;;;;5.90;4.30;;;;;;;21.32;75.77;98202.41;5020831;28;20033;-63
2022/09/01 07:58:28;;;;;;;6.20;3.92;;;;;;;21.27;75.42;98200.41;5019955;28;20361;-61
2022/09/01 08:00:54;;;;;;;6.80;4.55;;;;;;;21.26;75.60;98201.44;5034159;28;20046;-63
2022/09/01 08:03:22;;;;;;;7.05;4.75;;;;;;;21.17;76.72;98202.78;5038729;28;20033;-62
2022/09/01 08:05:52;;;;;;;7.53;4.22;;;;;;;21.31;76.39;98196.28;5027856;28;20025;-60
2022/09/01 08:08:18;;;;;;;6.07;4.38;;;;;;;21.29;76.09;98198.34;5039134;28;20031;-60
2022/09/01 08:10:45;;;;;;;5.78;4.20;;;;;;;21.28;75.08;98174.78;5023554;28;20029;-60
2022/09/01 08:13:11;;;;;;;5.70;3.88;;;;;;;21.40;75.03;98195.97;5040386;28;20029;-57
2022/09/01 08:15:38;;;;;;;7.15;4.25;;;;;;;21.21;75.35;98164.31;5042237;28;20045;-60
2022/09/01 08:18:03;;;;;;;9.55;4.72;;;;;;;21.42;75.44;98189.44;5023716;28;20445;-60
2022/09/01 08:20:29;;;;;;;7.43;5.05;;;;;;;21.26;75.39;98153.84;5038160;28;20051;-58
2022/09/01 08:22:55;;;;;;;8.93;4.25;;;;;;;21.53;75.01;98189.72;5041421;28;20021;-59
2022/09/01 08:25:20;;;;;;;8.07;4.90;;;;;;;21.54;75.35;98194.78;5023496;28;20071;-57
2022/09/01 08:27:46;;;;;;;7.43;4.75;;;;;;;21.55;75.87;98187.66;5036170;28;20044;-59
2022/09/01 08:30:12;;;;;;;7.25;4.50;;;;;;;21.63;75.47;98195.25;5037943;28;20079;-60
2022/09/01 08:32:40;;;;;;;6.38;4.53;;;;;;;21.75;74.36;98185.50;5020381;28;20078;-60
2022/09/01 08:35:10;;;;;;;6.97;5.13;;;;;;;21.74;74.72;98191.03;5022369;28;20156;-59
2022/09/01 08:37:36;;;;;;;6.35;4.53;;;;;;;21.54;73.46;98164.88;5022191;28;20055;-61
2022/09/01 08:40:06;;;;;;;9.48;4.40;;;;;;;22.04;72.47;98188.31;5030191;28;20040;-60
2022/09/01 08:42:31;;;;;;;6.25;4.18;;;;;;;22.50;68.05;98184.06;5033526;28;20060;-61
2022/09/01 08:45:11;;;;;;;6.43;4.50;;;;;;;;;;5033693;28;20550;-62
2022/09/01 08:47:37;;;;;;;7.93;4.47;;;;;;;22.41;69.29;98183.63;5034841;28;20098;-64
2022/09/01 08:50:03;;;;;;;11.18;4.70;;;;;;;22.59;68.55;98184.53;5034373;28;20029;-62
2022/09/01 08:52:38;;;;;;;6.93;4.57;;;;;;;22.78;68.16;98182.53;5018843;28;20025;-58
2022/09/01 08:55:30;;;;;;;7.20;5.18;;;;;;;22.76;67.61;98182.78;5019808;28;20471;-59
2022/09/01 08:57:56;;;;;;;7.50;4.60;;;;;;;22.58;69.37;98181.09;5030896;28;20040;-58
2022/09/01 09:00:40;;;;;;;8.73;4.72;;;;;;;22.89;67.62;98170.28;5036268;28;20025;-61
2022/09/01 09:03:09;;;;;;;6.95;4.22;;;;;;;22.92;67.09;98178.56;5035580;28;20065;-58
2022/09/01 09:05:52;;;;;;;7.75;4.40;;;;;;;23.04;67.81;98181.22;5041634;28;20037;-59
2022/09/01 09:08:45;;;;;;;8.02;5.07;;;;;;;23.05;67.31;98180.19;5036185;28;20029;-58
2022/09/01 09:11:32;;;;;;;6.35;4.75;;;;;;;23.08;67.00;98171.75;5035844;28;20037;-58
2022/09/01 09:14:01;;;;;;;6.30;4.13;;;;;;;23.28;65.30;98181.16;5029675;28;20029;-59
2022/09/01 09:16:47;;;;;;;7.53;4.40;;;;;;;23.37;64.69;98179.72;5034405;28;20744;-60
2022/09/01 09:19:23;;;;;;;7.05;4.05;;;;;;;23.44;64.37;98176.91;5017274;28;20287;-60
2022/09/01 09:21:50;;;;;;;7.93;4.65;;;;;;;23.54;63.72;98177.88;5029638;28;20020;-60
2022/09/01 09:27:23;;;;;;;7.07;4.50;;;;;;;23.65;63.81;98170.09;5029951;28;20802;-59
2022/09/01 09:29:51;;;;;;;6.50;4.38;;;;;;;23.54;63.94;98146.03;5069964;28;20117;-62
2022/09/01 09:32:16;;;;;;;5.93;4.22;;;;;;;23.53;63.98;98138.31;5020745;28;20394;-61
2022/09/01 09:34:42;;;;;;;7.45;4.25;;;;;;;23.64;63.87;98144.59;5035591;28;20037;-55
2022/09/01 09:37:24;;;;;;;8.75;4.28;;;;;;;23.70;63.90;98152.41;5035915;28;20124;-59
2022/09/01 09:40:10;;;;;;;7.25;4.30;;;;;;;23.87;64.03;98171.00;5027679;28;20415;-62
2022/09/01 09:42:59;;;;;;;6.68;4.10;;;;;;;23.89;62.77;98166.25;5031708;28;20033;-57
2022/09/01 09:45:24;;;;;;;;;;;;;;;23.98;62.18;98166.66;5034262;28;20087;-63
2022/09/01 09:47:51;;;;;;;6.53;3.87;;;;;;;24.02;61.81;98162.47;5031515;28;19912;-59
2022/09/01 09:50:16;;;;;;;5.75;3.83;;;;;;;24.08;61.60;98169.47;5043513;28;20040;-59
2022/09/01 09:52:45;;;;;;;6.05;3.95;;;;;;;24.10;60.59;98163.94;5044295;28;20404;-61
2022/09/01 09:55:23;;;;;;;5.93;3.85;;;;;;;24.11;60.29;98160.22;5047004;28;20033;-59
2022/09/01 09:57:50;;;;;;;6.05;3.30;;;;;;;24.15;60.05;98154.19;5021628;28;20058;-56
2022/09/01 10:00:21;;;;;;;7.40;3.67;;;;;;;24.41;59.21;98146.56;5032071;28;20029;-63
2022/09/01 10:02:55;;;;;;;6.40;3.60;;;;;;;24.29;60.01;98129.94;5019959;28;20074;-58
2022/09/01 10:05:21;;;;;;;7.50;4.38;;;;;;;24.58;59.57;98159.81;5020448;28;20837;-59
2022/09/01 10:07:47;;;;;;;6.20;3.92;;;;;;;24.64;59.91;98142.91;5038610;28;20107;-59
2022/09/01 10:10:39;;;;;;;7.07;3.83;;;;;;;24.65;60.01;98127.75;5030118;28;20056;-61
2022/09/01 10:13:10;;;;;;;5.93;3.83;;;;;;;24.75;59.86;98139.31;5029677;28;20120;-58
2022/09/01 10:15:36;;;;;;;8.82;4.28;;;;;;;24.79;58.41;98136.97;5016463;28;20117;-57
2022/09/01 10:18:13;;;;;;;6.50;4.20;;;;;;;24.93;58.05;98142.69;5032162;28;20034;-62
2022/09/01 10:20:43;;;;;;;7.00;4.30;;;;;;;24.91;57.94;98142.94;5027656;28;20029;-60
2022/09/01 10:23:10;;;;;;;6.97;3.90;;;;;;;24.84;57.64;98106.97;5026073;28;20036;-59
2022/09/01 10:25:41;;;;;;;5.47;3.55;;;;;;;24.84;58.39;98109.63;5034259;28;20032;-61
2022/09/01 10:28:20;;;;;;;6.10;4.10;;;;;;;24.90;59.13;98129.91;5029102;28;20045;-64
2022/09/01 10:30:46;;;;;;;7.18;4.43;;;;;;;24.59;58.86;98095.00;5017122;28;20071;-58
2022/09/01 10:33:14;;;;;;;6.10;3.70;;;;;;;24.76;58.74;98121.50;5031692;28;20411;-63
2022/09/01 10:35:43;;;;;;;7.40;3.78;;;;;;;24.68;58.56;98103.31;5029822;28;20463;-57
2022/09/01 10:38:14;;;;;;;6.30;3.60;;;;;;;24.85;56.61;98088.09;5028189;28;20028;-60
2022/09/01 10:40:47;;;;;;;5.82;4.00;;;;;;;24.96;57.67;98122.78;5025810;28;20490;-61
2022/09/01 10:43:43;;;;;;;6.90;3.90;;;;;;;25.12;57.26;98117.38;5035553;28;20037;-58
2022/09/01 10:46:18;;;;;;;7.78;3.80;;;;;;;25.17;56.76;98123.78;5035539;28;20036;-61
2022/09/01 10:48:45;;;;;;;6.72;4.07;;;;;;;25.09;56.95;98091.25;5032301;28;20032;-58
2022/09/01 10:51:13;;;;;;;6.18;3.97;;;;;;;25.49;55.15;98116.66;5028186;28;20170;-60
2022/09/01 10:53:44;;;;;;;6.15;3.60;;;;;;;25.43;55.89;98106.22;5034598;28;20109;-57
2022/09/01 10:56:31;;;;;;;7.18;4.00;;;;;;;25.41;55.98;98117.13;5018129;28;20072;-61
2022/09/01 10:59:22;;;;;;;5.72;3.38;;;;;;;25.52;53.70;98110.81;5024841;28;20033;-61
2022/09/01 11:01:48;;;;;;;5.90;3.25;;;;;;;25.58;55.22;98116.19;5029719;28;20128;-65
2022/09/01 11:04:24;;;;;;;7.03;3.92;;;;;;;25.72;55.25;98106.72;5023721;28;20108;-60
2022/09/01 11:06:57;;;;;;;6.47;4.22;;;;;;;25.60;55.65;98106.88;5035222;28;20028;-62
2022/09/01 11:09:51;;;;;;;7.35;4.40;;;;;;;25.52;55.84;98102.84;5029487;28;20036;-58
2022/09/01 11:13:14;;;;;;;5.43;3.60;;;;;;;25.57;54.95;98106.59;5033261;28;20048;-60
2022/09/01 11:15:42;;;;;;;6.63;4.20;;;;;;;25.61;55.26;98105.03;4996779;28;20141;-58
2022/09/01 11:18:16;;;;;;;8.43;4.30;;;;;;;25.72;54.52;98104.06;4999681;28;20104;-63
2022/09/01 11:20:43;;;;;;;8.23;4.18;;;;;;;25.70;54.18;98108.81;5018786;28;20041;-60
2022/09/01 11:23:24;;;;;;;6.00;3.65;;;;;;;25.72;54.40;98098.75;5037364;28;20032;-60
2022/09/01 11:25:56;;;;;;;6.68;4.03;;;;;;;25.81;53.96;98099.03;5024505;28;20028;-61
2022/09/01 11:28:22;;;;;;;6.38;3.78;;;;;;;25.95;54.12;98112.75;5017317;28;20032;-59
2022/09/01 11:30:55;;;;;;;6.40;4.05;;;;;;;25.98;53.20;98101.59;5032797;28;20025;-59
2022/09/01 11:33:48;;;;;;;6.32;4.05;;;;;;;26.05;53.12;98102.97;5041323;28;20123;-61
2022/09/01 11:36:35;;;;;;;6.90;3.72;;;;;;;25.93;53.12;98074.94;5039202;28;20033;-59
2022/09/01 11:39:12;;;;;;;5.63;3.80;;;;;;;26.18;51.78;98091.03;5034408;28;20464;-60
2022/09/01 11:41:56;;;;;;;5.07;3.33;;;;;;;26.21;51.83;98098.53;5035232;28;20040;-58
2022/09/01 11:44:29;;;;;;;5.65;3.60;;;;;;;26.40;50.35;98084.75;5044456;28;20024;-58
2022/09/01 11:47:02;;;;;;;6.82;3.90;;;;;;;26.27;52.18;98091.34;5026729;28;20033;-60
2022/09/01 11:49:37;;;;;;;8.32;4.95;;;;;;;26.13;54.38;98095.53;5020420;28;20119;-59
2022/09/01 11:52:03;;;;;;;7.65;4.82;;;;;;;26.25;52.82;98091.63;5011162;28;20103;-57